Time;durP1;ratioP1;P1;durP2;ratioP2;P2;SDS_P1;SDS_P2;PMS_P1;PMS_P2;Temp;Humidity;BMP_temperature;BMP_pressure;BME280_temperature;BME280_humidity;BME280_pressure;Samples;Min_cycle;Max_cycle;Signal;HPM_P1;HPM_P2
2022/01/15 00:00:42;;;;;;;22.88;8.88;;;3.00;99.90;;;;;;5096605;27;20067;-78
2022/01/15 00:03:10;;;;;;;20.75;8.18;;;3.00;99.90;;;;;;5098159;27;20039;-78
2022/01/15 00:05:36;;;;;;;22.15;9.40;;;3.00;99.90;;;;;;5118475;27;20040;-77
2022/01/15 00:08:03;;;;;;;15.07;7.32;;;2.90;99.90;;;;;;5116139;27;20524;-77
2022/01/15 00:10:30;;;;;;;18.10;7.65;;;2.90;99.90;;;;;;5113807;27;20047;-77
2022/01/15 00:13:01;;;;;;;14.98;6.57;;;2.90;99.90;;;;;;5092322;27;20286;-77
2022/01/15 00:15:31;;;;;;;14.30;6.75;;;2.90;99.90;;;;;;5114639;27;20044;-77
2022/01/15 00:20:23;;;;;;;20.50;8.23;;;2.90;99.90;;;;;;5115309;27;20056;-77
2022/01/15 00:22:51;;;;;;;15.23;6.63;;;3.20;99.90;;;;;;5115365;27;20441;-78
2022/01/15 00:25:18;;;;;;;16.95;6.70;;;2.80;99.90;;;;;;5099818;27;20051;-77
2022/01/15 00:27:45;;;;;;;15.73;6.25;;;3.10;99.90;;;;;;5119149;27;20093;-77
2022/01/15 00:30:12;;;;;;;14.25;8.38;;;3.00;99.90;;;;;;5118544;27;20649;-77
2022/01/15 00:32:38;;;;;;;18.65;5.93;;;2.90;99.90;;;;;;5103381;27;20032;-77
2022/01/15 00:35:06;;;;;;;14.73;6.85;;;2.80;99.90;;;;;;5118024;27;20086;-78
2022/01/15 00:37:32;;;;;;;22.00;7.95;;;2.80;99.90;;;;;;5098327;27;20039;-77
2022/01/15 00:40:00;;;;;;;20.73;7.13;;;2.90;99.90;;;;;;5093286;27;20031;-78
2022/01/15 00:42:27;;;;;;;14.10;5.60;;;2.90;99.90;;;;;;5110174;27;20229;-77
2022/01/15 00:44:55;;;;;;;17.65;6.82;;;3.50;99.90;;;;;;5097348;27;20092;-77
2022/01/15 00:47:21;;;;;;;18.50;6.50;;;3.00;99.90;;;;;;5095070;27;20043;-77
2022/01/15 00:49:46;;;;;;;11.30;6.63;;;3.00;99.90;;;;;;5095425;27;20052;-77
2022/01/15 00:52:12;;;;;;;20.40;7.32;;;2.90;99.90;;;;;;5098038;27;20124;-77
2022/01/15 00:54:38;;;;;;;18.65;7.10;;;2.80;99.90;;;;;;5094187;27;20040;-77
2022/01/15 00:57:03;;;;;;;16.83;6.18;;;3.30;99.90;;;;;;5116894;27;20035;-77
2022/01/15 00:59:29;;;;;;;16.48;6.85;;;2.70;99.90;;;;;;5097697;27;20036;-77
2022/01/15 01:01:55;;;;;;;21.42;8.45;;;2.80;99.90;;;;;;5095374;27;20421;-77
2022/01/15 01:04:21;;;;;;;20.25;7.82;;;2.70;99.90;;;;;;5116307;27;20048;-78
2022/01/15 01:06:47;;;;;;;11.25;5.13;;;2.70;99.90;;;;;;5097096;27;20580;-77
2022/01/15 01:09:13;;;;;;;13.68;7.07;;;2.80;99.90;;;;;;5095121;27;20123;-77
2022/01/15 01:11:59;;;;;;;16.50;6.50;;;2.70;99.90;;;;;;5095041;27;20071;-77
2022/01/15 01:20:22;;;;;;;11.27;5.30;;;2.70;99.90;;;;;;5113927;27;20650;-77
2022/01/15 01:22:55;;;;;;;15.88;7.18;;;3.10;99.90;;;;;;5114737;27;21206;-77
2022/01/15 01:25:22;;;;;;;14.20;6.15;;;2.60;99.90;;;;;;5113446;27;20046;-78
2022/01/15 01:27:52;;;;;;;17.08;5.45;;;2.60;99.90;;;;;;5113114;27;20118;-78
2022/01/15 01:32:55;;;;;;;11.27;6.18;;;2.60;99.90;;;;;;5117348;27;20082;-78
2022/01/15 01:35:39;;;;;;;19.50;6.97;;;2.60;99.90;;;;;;5112119;27;20075;-78
2022/01/15 01:38:25;;;;;;;17.42;7.53;;;2.60;99.90;;;;;;5097671;27;20040;-79
2022/01/15 01:40:51;;;;;;;19.30;8.60;;;2.60;99.90;;;;;;5098756;27;20066;-78
2022/01/15 01:45:48;;;;;;;19.70;7.57;;;2.60;99.90;;;;;;5113282;27;20044;-78
2022/01/15 01:48:14;;;;;;;13.30;6.30;;;2.60;99.90;;;;;;5108248;27;20133;-78
2022/01/15 01:50:40;;;;;;;16.40;6.65;;;2.50;99.90;;;;;;5091321;27;20172;-78
2022/01/15 01:53:06;;;;;;;16.88;7.07;;;2.50;99.90;;;;;;5111851;27;20090;-78
2022/01/15 01:55:32;;;;;;;23.33;8.00;;;2.50;99.90;;;;;;5096837;27;20040;-78
2022/01/15 01:57:58;;;;;;;18.80;6.30;;;2.50;99.90;;;;;;5111752;27;20069;-78
2022/01/15 02:00:26;;;;;;;16.98;7.22;;;2.50;99.90;;;;;;5111697;27;20051;-78
2022/01/15 02:02:53;;;;;;;14.50;6.38;;;2.60;99.90;;;;;;5089608;27;20035;-78
2022/01/15 02:05:19;;;;;;;16.02;6.50;;;2.70;99.90;;;;;;5110043;27;20043;-79
2022/01/15 02:07:46;;;;;;;11.23;5.55;;;2.60;99.90;;;;;;5111897;27;20513;-78
2022/01/15 02:10:15;;;;;;;16.85;5.55;;;2.60;99.90;;;;;;5106675;27;20044;-78
2022/01/15 02:12:41;;;;;;;11.98;5.20;;;2.60;99.90;;;;;;5099054;27;20071;-79
2022/01/15 02:15:10;;;;;;;13.02;5.95;;;2.60;99.90;;;;;;5114056;27;20083;-79
2022/01/15 02:17:37;;;;;;;14.82;5.45;;;2.50;99.90;;;;;;5113299;27;20035;-78
2022/01/15 02:20:48;;;;;;;20.83;7.30;;;2.60;99.90;;;;;;5114596;27;20051;-78
2022/01/15 02:25:57;;;;;;;12.45;5.03;;;2.60;99.90;;;;;;5113551;27;20048;-78
2022/01/15 02:28:38;;;;;;;12.00;5.18;;;2.50;99.90;;;;;;5109886;27;20990;-78
2022/01/15 02:31:08;;;;;;;15.10;5.45;;;2.80;99.90;;;;;;5112107;27;20036;-79
2022/01/15 02:33:35;;;;;;;12.38;5.97;;;2.60;99.90;;;;;;5095126;27;20054;-79
2022/01/15 02:36:02;;;;;;;11.57;5.05;;;2.60;99.90;;;;;;5111281;27;20922;-78
2022/01/15 02:38:28;;;;;;;14.43;4.97;;;2.60;99.90;;;;;;5110556;27;20044;-78
2022/01/15 02:40:54;;;;;;;13.52;5.95;;;2.50;99.90;;;;;;5109983;27;20036;-78
2022/01/15 02:43:28;;;;;;;13.90;6.68;;;2.50;99.90;;;;;;5099570;27;20123;-78
2022/01/15 02:45:55;;;;;;;17.75;6.82;;;2.50;99.90;;;;;;5115464;27;20080;-78
2022/01/15 02:50:50;;;;;;;21.98;6.50;;;2.50;99.90;;;;;;5045687;28;20060;-78
2022/01/15 02:53:16;;;;;;;16.13;7.75;;;2.40;99.90;;;;;;5051768;28;20982;-78
2022/01/15 02:55:44;;;;;;;15.20;6.45;;;2.40;99.90;;;;;;5048647;28;20076;-77
2022/01/15 02:58:10;;;;;;;16.95;6.47;;;2.30;99.90;;;;;;5034493;28;20049;-77
2022/01/15 03:00:36;;;;;;;15.15;5.20;;;2.40;99.90;;;;;;5039642;28;20044;-78
2022/01/15 03:03:02;;;;;;;15.27;6.47;;;2.40;99.90;;;;;;5056215;28;20048;-78
2022/01/15 03:05:28;;;;;;;14.48;5.45;;;2.30;99.90;;;;;;5043647;28;20084;-78
2022/01/15 03:07:54;;;;;;;11.05;5.93;;;2.40;99.90;;;;;;5038757;28;20045;-78
2022/01/15 03:10:19;;;;;;;15.27;6.32;;;2.40;99.90;;;;;;5059357;28;20072;-78
2022/01/15 03:12:45;;;;;;;9.32;5.20;;;2.40;99.90;;;;;;5062810;28;20044;-78
2022/01/15 03:15:17;;;;;;;18.98;6.05;;;2.40;99.90;;;;;;5041140;28;20095;-78
2022/01/15 03:17:44;;;;;;;12.48;4.97;;;2.40;99.90;;;;;;5057016;28;21172;-78
2022/01/15 03:20:10;;;;;;;11.27;5.95;;;2.40;99.90;;;;;;5055322;28;20565;-78
2022/01/15 03:22:36;;;;;;;12.25;5.18;;;2.30;99.90;;;;;;5039713;28;20047;-78
2022/01/15 03:25:02;;;;;;;14.25;6.72;;;2.60;99.90;;;;;;5057753;28;20055;-78
2022/01/15 03:27:27;;;;;;;15.48;6.03;;;2.20;99.90;;;;;;5058177;28;20140;-79
2022/01/15 03:29:53;;;;;;;12.32;4.20;;;2.20;99.90;;;;;;5038738;28;20516;-78
2022/01/15 03:32:20;;;;;;;14.60;5.75;;;2.30;99.90;;;;;;5057579;28;20518;-78
2022/01/15 03:34:46;;;;;;;20.23;7.97;;;2.80;99.90;;;;;;5056599;28;20045;-79
2022/01/15 03:37:12;;;;;;;11.32;5.47;;;2.30;99.90;;;;;;5041758;28;20048;-78
2022/01/15 03:39:38;;;;;;;11.85;5.50;;;2.30;99.90;;;;;;5057470;28;20041;-77
2022/01/15 03:42:11;;;;;;;13.15;5.88;;;2.30;99.90;;;;;;5056578;28;20049;-78
2022/01/15 03:44:46;;;;;;;18.65;7.03;;;2.30;99.90;;;;;;5057318;28;20033;-78
2022/01/15 03:47:13;;;;;;;10.27;6.00;;;2.30;99.90;;;;;;5057893;28;20088;-78
2022/01/15 03:49:40;;;;;;;11.60;5.22;;;2.30;99.90;;;;;;5046046;28;20064;-78
2022/01/15 03:52:07;;;;;;;11.65;6.05;;;2.30;99.90;;;;;;5053371;28;20048;-78
2022/01/15 03:54:33;;;;;;;15.45;5.00;;;2.30;99.90;;;;;;5072370;28;20132;-78
2022/01/15 03:57:00;;;;;;;13.05;5.55;;;2.20;99.90;;;;;;5062469;28;20041;-78
2022/01/15 03:59:26;;;;;;;14.70;5.88;;;2.20;99.90;;;;;;5057163;28;20043;-78
2022/01/15 04:01:51;;;;;;;13.65;5.93;;;2.20;99.90;;;;;;5057670;28;20048;-78
2022/01/15 04:04:18;;;;;;;18.40;4.97;;;2.20;99.90;;;;;;5067604;28;20044;-78
2022/01/15 04:06:44;;;;;;;11.48;4.25;;;2.30;99.90;;;;;;5058936;28;20041;-78
2022/01/15 04:09:11;;;;;;;8.20;5.20;;;2.20;99.90;;;;;;5063112;28;20037;-78
2022/01/15 04:11:37;;;;;;;8.50;4.70;;;2.20;99.90;;;;;;5059474;28;20107;-77
2022/01/15 04:14:04;;;;;;;8.43;3.85;;;2.20;99.90;;;;;;5052981;28;20045;-77
2022/01/15 04:16:30;;;;;;;10.45;4.22;;;2.10;99.90;;;;;;5057194;28;20567;-78
2022/01/15 04:18:57;;;;;;;13.27;4.53;;;2.10;99.90;;;;;;5065706;28;20120;-77
2022/01/15 04:21:23;;;;;;;11.55;4.20;;;2.10;99.90;;;;;;5066136;28;20132;-78
2022/01/15 04:23:48;;;;;;;9.57;4.75;;;2.00;99.90;;;;;;5052677;28;20048;-77
2022/01/15 04:26:14;;;;;;;10.02;5.85;;;2.00;99.90;;;;;;5056596;28;20052;-78
2022/01/15 04:28:40;;;;;;;11.82;4.90;;;2.40;99.90;;;;;;5056397;28;20041;-78
2022/01/15 04:31:08;;;;;;;9.02;3.60;;;2.10;99.90;;;;;;5057196;28;20167;-78
2022/01/15 04:33:36;;;;;;;14.40;6.75;;;2.10;99.90;;;;;;5057061;28;20044;-78
2022/01/15 04:36:04;;;;;;;15.00;6.85;;;2.10;99.90;;;;;;5057689;28;20841;-78
2022/01/15 04:38:32;;;;;;;11.57;4.72;;;2.10;99.90;;;;;;5057250;28;20041;-78
2022/01/15 04:40:58;;;;;;;12.75;5.10;;;2.10;99.90;;;;;;5053525;28;20064;-78
2022/01/15 04:43:24;;;;;;;13.45;6.07;;;2.10;99.90;;;;;;5056172;28;20128;-78
2022/01/15 04:45:49;;;;;;;14.85;5.70;;;2.10;99.90;;;;;;5056862;28;20052;-78
2022/01/15 04:48:15;;;;;;;11.70;4.88;;;2.10;99.90;;;;;;5053272;28;22479;-78
2022/01/15 04:50:41;;;;;;;13.40;6.32;;;2.10;99.90;;;;;;5037415;28;20068;-77
2022/01/15 04:53:09;;;;;;;10.25;6.15;;;2.10;99.90;;;;;;5037222;28;20091;-78
2022/01/15 04:55:35;;;;;;;12.73;5.55;;;2.20;99.90;;;;;;5039715;28;20545;-78
2022/01/15 04:58:02;;;;;;;16.13;4.57;;;2.20;99.90;;;;;;5016878;28;20443;-77
2022/01/15 05:00:28;;;;;;;11.35;4.82;;;2.00;99.90;;;;;;5039702;28;20037;-77
2022/01/15 05:02:54;;;;;;;11.63;5.57;;;2.00;99.90;;;;;;5022388;28;20547;-78
2022/01/15 05:05:19;;;;;;;6.63;3.40;;;2.00;99.90;;;;;;5034547;28;20060;-78
2022/01/15 05:07:45;;;;;;;10.57;4.82;;;2.00;99.90;;;;;;5018674;28;20049;-77
2022/01/15 05:10:16;;;;;;;8.07;4.40;;;1.90;99.90;;;;;;5035621;28;20128;-78
2022/01/15 05:12:46;;;;;;;11.20;4.70;;;1.90;99.90;;;;;;5021926;28;20096;-78
2022/01/15 05:15:14;;;;;;;10.52;5.43;;;1.90;99.90;;;;;;5034749;28;20034;-78
2022/01/15 05:17:40;;;;;;;18.75;8.93;;;2.00;99.90;;;;;;5034386;28;20100;-78
2022/01/15 05:20:08;;;;;;;25.33;9.73;;;2.30;99.90;;;;;;5019196;28;20128;-77
2022/01/15 05:22:34;;;;;;;13.95;5.75;;;2.00;99.90;;;;;;5036490;28;20038;-78
2022/01/15 05:25:01;;;;;;;12.00;6.45;;;1.80;99.90;;;;;;5025869;28;20050;-77
2022/01/15 05:27:27;;;;;;;17.55;5.88;;;2.10;99.90;;;;;;5021935;28;20052;-78
2022/01/15 05:29:52;;;;;;;14.27;5.57;;;1.90;99.90;;;;;;5021513;28;20064;-78
2022/01/15 05:32:19;;;;;;;13.55;5.30;;;1.90;99.90;;;;;;5017594;28;20049;-78
2022/01/15 05:34:48;;;;;;;13.10;5.63;;;2.50;99.90;;;;;;5019657;28;20069;-78
2022/01/15 05:37:14;;;;;;;41.83;18.80;;;1.80;99.90;;;;;;5040322;28;20055;-78
2022/01/15 05:39:39;;;;;;;19.05;8.27;;;1.90;99.90;;;;;;5039983;28;20413;-78
2022/01/15 05:42:05;;;;;;;15.50;7.43;;;1.80;99.90;;;;;;5034109;28;20052;-77
2022/01/15 05:44:31;;;;;;;11.18;4.72;;;1.80;99.90;;;;;;5015612;28;20571;-78
2022/01/15 05:46:57;;;;;;;10.05;5.18;;;1.80;99.90;;;;;;5035663;28;20068;-79
2022/01/15 05:49:23;;;;;;;13.70;4.75;;;1.80;99.90;;;;;;5044705;28;20819;-78
2022/01/15 05:51:49;;;;;;;8.85;5.43;;;1.70;99.90;;;;;;5049652;28;20129;-78
2022/01/15 05:54:14;;;;;;;9.65;4.80;;;1.80;99.90;;;;;;5053736;28;20111;-78
2022/01/15 05:56:40;;;;;;;13.80;5.32;;;1.80;99.90;;;;;;5058370;28;20419;-78
2022/01/15 05:59:07;;;;;;;13.80;6.13;;;1.80;99.90;;;;;;5058052;28;20045;-78
2022/01/15 06:01:34;;;;;;;13.55;5.50;;;1.80;99.90;;;;;;5056944;28;20045;-78
2022/01/15 06:04:00;;;;;;;12.65;4.60;;;1.80;99.90;;;;;;5067352;28;20783;-78
2022/01/15 06:06:25;;;;;;;15.88;5.95;;;1.80;99.90;;;;;;5049919;28;20042;-78
2022/01/15 06:08:51;;;;;;;97.75;25.58;;;3.00;99.90;;;;;;5055489;28;20450;-78
2022/01/15 06:11:18;;;;;;;72.55;24.48;;;2.00;99.90;;;;;;5060042;28;20041;-78
2022/01/15 06:13:48;;;;;;;38.42;17.95;;;1.80;99.90;;;;;;5059067;28;20102;-78
2022/01/15 06:16:14;;;;;;;29.65;11.18;;;1.70;99.90;;;;;;5058345;28;20037;-78
2022/01/15 06:18:40;;;;;;;66.45;20.38;;;1.80;99.90;;;;;;5058736;28;20490;-78
2022/01/15 06:21:06;;;;;;;24.50;11.32;;;1.90;99.90;;;;;;5058792;28;20080;-78
2022/01/15 06:23:32;;;;;;;27.00;9.35;;;2.10;99.90;;;;;;5056149;28;20079;-78
2022/01/15 06:25:58;;;;;;;76.93;22.45;;;1.70;99.90;;;;;;5055687;28;20626;-78
2022/01/15 06:28:24;;;;;;;39.22;13.35;;;1.80;99.90;;;;;;5058316;28;20661;-78
2022/01/15 06:30:49;;;;;;;25.83;11.35;;;1.70;99.90;;;;;;5051789;28;20037;-79
2022/01/15 06:33:16;;;;;;;13.95;7.50;;;1.80;99.90;;;;;;5055854;28;20043;-78
2022/01/15 06:35:42;;;;;;;16.67;7.32;;;1.50;99.90;;;;;;5057042;28;20464;-79
2022/01/15 06:38:08;;;;;;;25.70;10.65;;;1.70;99.90;;;;;;5051909;28;20044;-78
2022/01/15 06:40:34;;;;;;;22.00;10.20;;;1.70;99.90;;;;;;5071467;28;20049;-79
2022/01/15 06:43:00;;;;;;;16.27;6.38;;;1.70;99.90;;;;;;5064218;28;20037;-78
2022/01/15 06:45:27;;;;;;;14.07;6.50;;;1.70;99.90;;;;;;5056403;28;20099;-78
2022/01/15 06:47:53;;;;;;;11.88;4.63;;;1.70;99.90;;;;;;5058030;28;20186;-79
2022/01/15 06:50:19;;;;;;;17.00;5.88;;;1.70;99.90;;;;;;5060022;28;20060;-78
2022/01/15 06:52:45;;;;;;;17.80;5.95;;;1.70;99.90;;;;;;5060636;28;20122;-78
2022/01/15 06:55:11;;;;;;;12.55;5.95;;;1.60;99.90;;;;;;5056609;28;20584;-78
2022/01/15 06:57:37;;;;;;;10.77;5.85;;;1.70;99.90;;;;;;5057998;28;20088;-78
2022/01/15 07:00:07;;;;;;;10.02;4.72;;;2.00;99.90;;;;;;5054011;28;20042;-78
2022/01/15 07:02:33;;;;;;;12.25;5.63;;;1.70;99.90;;;;;;5061315;28;20046;-77
2022/01/15 07:04:59;;;;;;;25.77;6.25;;;2.40;99.90;;;;;;5056939;28;20044;-78
2022/01/15 07:07:24;;;;;;;31.20;8.70;;;1.70;99.90;;;;;;5057590;28;20052;-78
2022/01/15 07:09:50;;;;;;;11.63;6.35;;;1.70;99.90;;;;;;5060736;28;20093;-78
2022/01/15 07:12:16;;;;;;;32.53;9.20;;;1.70;99.90;;;;;;5055768;28;20416;-78
2022/01/15 07:14:41;;;;;;;29.15;10.18;;;1.60;99.90;;;;;;5057910;28;20098;-78
2022/01/15 07:17:07;;;;;;;33.70;11.25;;;1.70;99.90;;;;;;5049005;28;20124;-78
2022/01/15 07:19:33;;;;;;;18.83;7.68;;;1.70;99.90;;;;;;5060126;28;20044;-76
2022/01/15 07:21:59;;;;;;;15.27;6.68;;;1.70;99.90;;;;;;5057383;28;20484;-76
2022/01/15 07:24:25;;;;;;;18.45;7.22;;;1.70;99.90;;;;;;5056892;28;20045;-78
2022/01/15 07:26:50;;;;;;;46.53;14.85;;;1.60;99.90;;;;;;5062005;28;20053;-78
2022/01/15 07:29:16;;;;;;;41.10;11.35;;;1.60;99.90;;;;;;5051419;28;20041;-78
2022/01/15 07:31:45;;;;;;;17.90;8.18;;;1.60;99.90;;;;;;5051912;28;21413;-78
2022/01/15 07:34:12;;;;;;;30.38;11.40;;;1.90;99.90;;;;;;5064012;28;20178;-78
2022/01/15 07:36:38;;;;;;;45.13;12.18;;;1.50;99.90;;;;;;5059946;28;20061;-78
2022/01/15 07:39:05;;;;;;;23.90;8.50;;;1.30;99.90;;;;;;5060206;28;20441;-78
2022/01/15 07:41:32;;;;;;;18.33;7.95;;;1.90;99.90;;;;;;5077899;28;21019;-78
2022/01/15 07:43:58;;;;;;;28.27;10.63;;;1.50;99.90;;;;;;5055130;28;20051;-78
2022/01/15 07:46:23;;;;;;;25.55;8.07;;;1.50;99.90;;;;;;5057704;28;20041;-78
2022/01/15 07:48:49;;;;;;;61.53;15.40;;;1.50;99.90;;;;;;5051885;28;20494;-78
2022/01/15 07:51:15;;;;;;;41.63;13.45;;;1.60;99.90;;;;;;5038972;28;20041;-78
2022/01/15 07:53:41;;;;;;;22.95;9.32;;;1.40;99.90;;;;;;5042492;28;20044;-78
2022/01/15 07:56:06;;;;;;;18.52;7.65;;;1.50;99.90;;;;;;5045567;28;20048;-78
2022/01/15 07:58:32;;;;;;;53.70;15.45;;;1.50;99.90;;;;;;5055734;28;20131;-78
2022/01/15 08:00:58;;;;;;;64.57;19.13;;;1.40;99.90;;;;;;5040995;28;20529;-78
2022/01/15 08:03:24;;;;;;;46.70;16.60;;;1.50;99.90;;;;;;5040320;28;20872;-78
2022/01/15 08:05:50;;;;;;;31.48;8.95;;;1.40;99.90;;;;;;5055255;28;20519;-78
2022/01/15 08:08:15;;;;;;;15.05;7.32;;;1.30;99.90;;;;;;5045338;28;20033;-78
2022/01/15 08:10:44;;;;;;;22.42;7.80;;;2.90;99.90;;;;;;5045209;28;20048;-79
2022/01/15 08:13:10;;;;;;;14.38;5.95;;;1.80;99.90;;;;;;5047730;28;20037;-79
2022/01/15 08:15:36;;;;;;;13.60;6.97;;;2.30;99.90;;;;;;5040538;28;20507;-77
2022/01/15 08:18:06;;;;;;;16.90;6.57;;;1.60;99.90;;;;;;5043983;28;20118;-78
2022/01/15 08:20:31;;;;;;;11.30;5.78;;;2.10;99.90;;;;;;5039964;28;20127;-78
2022/01/15 08:22:57;;;;;;;15.40;5.85;;;2.60;99.90;;;;;;5042880;28;20400;-78
2022/01/15 08:25:24;;;;;;;11.48;5.10;;;1.70;99.90;;;;;;5041708;28;20048;-78
2022/01/15 08:27:54;;;;;;;11.57;5.40;;;1.60;99.90;;;;;;5041783;28;20048;-78
2022/01/15 08:30:20;;;;;;;12.35;5.93;;;2.00;99.90;;;;;;5039681;28;20130;-78
2022/01/15 08:32:50;;;;;;;13.52;8.75;;;2.80;99.90;;;;;;5052451;28;20037;-78
2022/01/15 08:35:16;;;;;;;50.95;19.08;;;2.50;99.90;;;;;;5038732;28;20810;-79
2022/01/15 08:37:51;;;;;;;19.60;11.15;;;2.50;99.90;;;;;;5041656;28;20056;-78
2022/01/15 08:40:21;;;;;;;17.60;8.27;;;4.10;99.90;;;;;;5023742;28;20619;-82
2022/01/15 08:42:58;;;;;;;17.63;5.55;;;1.80;99.90;;;;;;5027799;28;20033;-80
2022/01/15 08:45:26;;;;;;;14.68;6.85;;;1.80;99.90;;;;;;5061400;28;20033;-80
2022/01/15 08:47:55;;;;;;;13.52;7.18;;;2.90;99.90;;;;;;5043317;28;20072;-81
2022/01/15 08:50:22;;;;;;;12.30;5.72;;;3.30;99.90;;;;;;5065308;28;20138;-83
2022/01/15 08:52:48;;;;;;;10.18;5.07;;;2.20;99.90;;;;;;5054891;28;20501;-79
2022/01/15 08:55:17;;;;;;;16.35;7.65;;;2.90;99.90;;;;;;5062566;28;20044;-81
2022/01/15 08:57:52;;;;;;;15.70;8.15;;;2.60;99.90;;;;;;5056418;28;20036;-80
2022/01/15 09:00:21;;;;;;;16.50;7.80;;;-0.30;99.90;;;;;;5061141;28;20064;-82
2022/01/15 09:02:51;;;;;;;14.98;7.63;;;3.60;99.90;;;;;;5060584;28;20037;-80
2022/01/15 09:05:20;;;;;;;17.17;7.15;;;2.60;99.90;;;;;;5055548;28;20044;-78
2022/01/15 09:07:46;;;;;;;17.95;6.38;;;3.00;99.90;;;;;;5058968;28;20517;-78
2022/01/15 09:10:13;;;;;;;20.88;8.00;;;2.70;99.90;;;;;;5060683;28;20524;-79
2022/01/15 09:12:38;;;;;;;16.23;7.97;;;3.30;99.90;;;;;;5056476;28;20206;-79
2022/01/15 09:15:08;;;;;;;12.52;6.13;;;2.80;99.90;;;;;;5055317;28;20133;-81
2022/01/15 09:17:37;;;;;;;20.45;6.97;;;2.10;99.90;;;;;;5055494;28;20072;-79
2022/01/15 09:20:08;;;;;;;21.75;8.30;;;0.90;99.90;;;;;;5055330;28;20534;-78
2022/01/15 09:22:37;;;;;;;14.63;5.63;;;2.70;99.90;;;;;;5053325;28;20040;-78
2022/01/15 09:25:04;;;;;;;20.80;6.90;;;3.50;99.90;;;;;;5052727;28;20080;-78
2022/01/15 09:30:19;;;;;;;14.50;6.80;;;2.20;99.90;;;;;;5061395;28;20036;-79
2022/01/15 09:32:55;;;;;;;12.68;6.25;;;2.80;99.90;;;;;;5057489;28;20047;-79
2022/01/15 09:35:27;;;;;;;18.48;6.20;;;2.80;99.90;;;;;;5058577;28;20041;-78
2022/01/15 09:37:56;;;;;;;;;;;2.80;99.90;;;;;;5054548;28;20079;-79
2022/01/15 09:40:27;;;;;;;20.52;5.55;;;3.40;99.90;;;;;;5057989;28;19927;-80
2022/01/15 09:43:09;;;;;;;18.42;7.03;;;2.70;99.90;;;;;;5048234;28;20103;-79
2022/01/15 09:45:39;;;;;;;17.38;7.05;;;2.80;99.90;;;;;;5054163;28;21206;-80
2022/01/15 09:48:07;;;;;;;15.95;7.32;;;3.20;99.90;;;;;;5056744;28;20681;-80
2022/01/15 09:50:42;;;;;;;21.45;6.43;;;3.60;99.90;;;;;;5051412;28;20092;-79
2022/01/15 09:53:20;;;;;;;20.95;9.60;;;3.80;99.90;;;;;;5061439;28;20072;-79
2022/01/15 09:55:47;;;;;;;16.27;6.53;;;3.70;99.90;;;;;;5060547;28;20051;-79
2022/01/15 09:58:16;;;;;;;14.15;6.32;;;3.30;99.90;;;;;;5052050;28;20038;-78
2022/01/15 10:00:50;;;;;;;11.90;7.25;;;1.70;99.90;;;;;;5062669;28;20531;-79
2022/01/15 10:03:19;;;;;;;16.02;5.30;;;3.70;99.90;;;;;;5062107;28;20570;-79
2022/01/15 10:05:50;;;;;;;17.92;8.10;;;4.30;99.90;;;;;;5052375;28;20048;-80
2022/01/15 10:08:21;;;;;;;19.67;7.35;;;2.60;99.90;;;;;;5066561;28;20127;-79
2022/01/15 10:10:57;;;;;;;16.73;7.32;;;2.30;99.90;;;;;;5061378;28;20518;-78
2022/01/15 10:13:26;;;;;;;18.35;7.68;;;4.00;99.90;;;;;;5060122;28;20140;-79
2022/01/15 10:15:58;;;;;;;15.82;6.53;;;3.40;99.90;;;;;;5056328;28;20124;-80
2022/01/15 10:18:31;;;;;;;16.45;7.55;;;3.80;99.90;;;;;;5059863;28;20072;-81
2022/01/15 10:21:25;;;;;;;15.63;7.00;;;2.60;99.90;;;;;;5061128;28;20049;-84
2022/01/15 10:24:01;;;;;;;17.15;7.80;;;3.30;99.90;;;;;;5054560;28;20041;-81
2022/01/15 10:26:38;;;;;;;13.50;7.32;;;2.70;99.90;;;;;;5058093;28;20049;-82
2022/01/15 10:29:07;;;;;;;21.27;6.40;;;3.70;99.90;;;;;;5056342;28;20068;-78
2022/01/15 10:31:44;;;;;;;18.13;7.88;;;1.10;99.90;;;;;;5055667;28;20033;-79
2022/01/15 10:34:33;;;;;;;21.42;7.75;;;2.70;99.90;;;;;;5052212;28;20042;-80
2022/01/15 10:37:21;;;;;;;19.75;8.05;;;4.30;99.90;;;;;;5075822;28;20045;-79
2022/01/15 10:39:58;;;;;;;15.98;7.63;;;3.60;99.90;;;;;;5058832;28;20171;-79
2022/01/15 10:42:29;;;;;;;20.77;8.45;;;3.60;99.90;;;;;;5062579;28;20539;-80
2022/01/15 10:44:57;;;;;;;18.60;7.45;;;4.00;99.90;;;;;;5066373;28;20041;-79
2022/01/15 10:47:48;;;;;;;17.60;7.88;;;4.00;99.90;;;;;;5054075;28;20042;-79
2022/01/15 10:50:27;;;;;;;19.90;8.65;;;3.20;99.90;;;;;;5059290;28;20618;-79
2022/01/15 10:53:08;;;;;;;;;;;;;;;;;;;;;
2022/01/15 10:55:34;;;;;;;18.42;8.88;;;2.30;99.90;;;;;;5060949;28;40800;-80
2022/01/15 10:58:11;;;;;;;18.88;8.25;;;3.30;99.90;;;;;;5059144;28;20549;-79
2022/01/15 11:00:40;;;;;;;24.65;10.68;;;3.40;99.90;;;;;;5065116;28;20124;-79
2022/01/15 11:03:12;;;;;;;22.42;9.85;;;4.30;99.90;;;;;;5051560;28;20554;-79
2022/01/15 11:05:48;;;;;;;18.90;8.50;;;3.40;99.90;;;;;;5043463;28;20047;-79
2022/01/15 11:08:28;;;;;;;22.92;10.05;;;2.70;99.90;;;;;;5049671;28;20042;-79
2022/01/15 11:11:02;;;;;;;14.85;7.50;;;4.40;99.90;;;;;;5061192;28;20060;-79
2022/01/15 11:13:31;;;;;;;22.38;11.65;;;3.90;99.90;;;;;;5055371;28;20048;-79
2022/01/15 11:16:00;;;;;;;23.33;10.38;;;3.10;99.90;;;;;;5067617;28;20090;-79
2022/01/15 11:18:57;;;;;;;23.40;9.57;;;4.20;99.90;;;;;;5063040;28;20037;-79
2022/01/15 11:21:27;;;;;;;22.80;11.25;;;3.50;99.90;;;;;;5063740;28;20095;-80
2022/01/15 11:23:53;;;;;;;23.65;10.00;;;3.20;99.90;;;;;;5055618;28;20075;-79
2022/01/15 11:26:36;;;;;;;26.92;11.30;;;4.60;99.90;;;;;;5068644;28;20048;-79
2022/01/15 11:29:03;;;;;;;25.33;11.23;;;4.20;99.90;;;;;;5055146;28;20045;-79
2022/01/15 11:31:43;;;;;;;29.80;13.07;;;4.90;99.90;;;;;;5054131;28;20182;-79
2022/01/15 11:34:18;;;;;;;25.40;10.95;;;4.60;99.90;;;;;;5068674;28;20052;-79
2022/01/15 11:36:52;;;;;;;28.98;10.82;;;3.80;99.90;;;;;;5066408;28;20128;-79
2022/01/15 11:39:41;;;;;;;28.13;12.52;;;4.20;99.90;;;;;;5075732;28;20191;-79
2022/01/15 11:42:28;;;;;;;22.77;9.73;;;4.40;99.90;;;;;;5048366;28;20059;-78
2022/01/15 11:44:57;;;;;;;20.48;10.13;;;4.20;99.90;;;;;;5054367;28;20041;-79
2022/01/15 11:47:25;;;;;;;17.92;10.35;;;4.40;99.90;;;;;;5063120;28;20056;-79
2022/01/15 11:49:53;;;;;;;33.78;12.05;;;4.90;99.90;;;;;;5060124;28;20099;-78
2022/01/15 11:52:26;;;;;;;22.73;9.80;;;3.00;99.90;;;;;;5069211;28;20041;-78
2022/01/15 11:55:05;;;;;;;21.65;8.30;;;3.90;99.90;;;;;;5052866;28;20135;-79
2022/01/15 11:57:36;;;;;;;17.52;8.65;;;4.30;99.90;;;;;;5066002;28;20049;-79
2022/01/15 12:00:27;;;;;;;20.92;8.95;;;4.80;99.90;;;;;;5065265;28;20069;-79
2022/01/15 12:03:12;;;;;;;20.63;10.65;;;4.50;99.90;;;;;;5044492;28;20053;-79
2022/01/15 12:05:46;;;;;;;19.13;9.93;;;4.60;99.90;;;;;;5060400;28;20041;-79
2022/01/15 12:08:12;;;;;;;21.83;9.60;;;5.10;99.90;;;;;;5063355;28;20049;-78
2022/01/15 12:10:50;;;;;;;23.42;10.10;;;5.10;99.90;;;;;;5068198;28;20103;-79
2022/01/15 12:13:51;;;;;;;20.23;10.23;;;4.70;99.90;;;;;;5055961;28;20520;-78
2022/01/15 12:16:31;;;;;;;21.48;9.52;;;4.30;99.90;;;;;;5051693;28;20049;-78
2022/01/15 12:19:03;;;;;;;22.85;9.98;;;4.40;99.90;;;;;;5042216;28;20041;-78
2022/01/15 12:21:53;;;;;;;18.75;8.65;;;4.70;99.90;;;;;;5060779;28;20037;-78
2022/01/15 12:24:58;;;;;;;22.10;10.55;;;4.40;99.90;;;;;;5049647;28;20117;-79
2022/01/15 12:27:28;;;;;;;20.80;9.52;;;3.80;99.90;;;;;;5061085;28;20051;-79
2022/01/15 12:30:00;;;;;;;17.08;9.00;;;5.60;99.90;;;;;;5065921;28;20264;-78
2022/01/15 12:32:31;;;;;;;22.02;9.00;;;4.80;99.90;;;;;;5062658;28;20037;-79
2022/01/15 12:35:00;;;;;;;20.67;8.98;;;4.10;99.90;;;;;;5050469;28;20060;-81
2022/01/15 12:37:26;;;;;;;21.13;9.95;;;4.90;99.90;;;;;;5058575;28;20041;-83
2022/01/15 12:39:54;;;;;;;18.65;10.43;;;4.80;99.90;;;;;;5055933;28;20052;-79
2022/01/15 12:42:28;;;;;;;22.60;8.88;;;5.10;99.90;;;;;;5055865;28;20692;-82
2022/01/15 12:45:17;;;;;;;20.77;8.75;;;3.60;99.90;;;;;;5069822;28;20048;-84
2022/01/15 12:47:47;;;;;;;14.63;8.43;;;5.50;99.90;;;;;;5055418;28;20041;-78
2022/01/15 12:50:16;;;;;;;15.15;7.80;;;5.20;99.90;;;;;;5048830;28;20055;-86
2022/01/15 12:52:44;;;;;;;18.90;7.22;;;5.80;99.90;;;;;;5019844;28;20128;-79
2022/01/15 12:55:10;;;;;;;16.60;8.20;;;4.60;99.90;;;;;;5020119;28;20045;-80
2022/01/15 12:57:42;;;;;;;23.90;12.07;;;5.00;99.90;;;;;;5043206;28;20049;-83
2022/01/15 13:00:18;;;;;;;30.52;12.18;;;4.60;99.90;;;;;;5034249;28;20048;-78
2022/01/15 13:02:49;;;;;;;23.05;10.80;;;4.60;99.90;;;;;;5021025;28;20041;-77
2022/01/15 13:05:15;;;;;;;28.23;11.75;;;4.70;99.90;;;;;;5038929;28;20104;-81
2022/01/15 13:07:48;;;;;;;25.65;10.32;;;4.70;99.90;;;;;;5037044;28;20050;-82
2022/01/15 13:10:30;;;;;;;20.30;7.82;;;5.50;99.90;;;;;;5039944;28;20041;-77
2022/01/15 13:12:55;;;;;;;18.40;8.45;;;4.90;99.90;;;;;;5038245;28;20475;-79
2022/01/15 13:15:26;;;;;;;16.85;7.70;;;5.40;99.90;;;;;;5038907;28;20135;-77
2022/01/15 13:17:53;;;;;;;16.85;8.82;;;4.70;99.90;;;;;;5020213;28;20052;-77
2022/01/15 13:20:34;;;;;;;17.88;8.90;;;4.80;99.90;;;;;;5017961;28;20527;-76